Terminal Aerodrome Forecast
Issued by NWS Binghamton, NY

Home | Current Version | Previous Version | Text Only | Print | Product List | Glossary On
Versions: 1 2 3 4 5 6 7 8 9 10 11 12 13 14 15 16 17 18 19 20 21 22 23
000
FTUS41 KBGM 160538
TAFAVP
TAF
KAVP 160538Z 1606/1706 VRB03KT 4SM BR SCT070
     FM160900 25006KT P6SM BKN060
     FM161400 27010KT P6SM BKN040
      TEMPO 1620/1623 5SM -SHSN BKN025
     FM170100 34005KT P6SM BKN050=

USA.gov is the U.S. government's official web portal to all federal, state and local government web resources and services.